sensor_id;sensor_type;location;lat;lon;timestamp;P1;durP1;ratioP1;P2;durP2;ratioP2
50429;SDS011;36359;41.556;-8.418;2023-03-30T00:00:54;11.85;;;2.55;;
50429;SDS011;36359;41.556;-8.418;2023-03-30T00:03:19;23.67;;;4.50;;
50429;SDS011;36359;41.556;-8.418;2023-03-30T00:05:47;22.70;;;4.20;;
50429;SDS011;36359;41.556;-8.418;2023-03-30T00:08:16;24.55;;;3.92;;
50429;SDS011;36359;41.556;-8.418;2023-03-30T00:10:45;17.42;;;3.72;;
50429;SDS011;36359;41.556;-8.418;2023-03-30T00:13:12;26.10;;;4.25;;
50429;SDS011;36359;41.556;-8.418;2023-03-30T00:15:38;23.23;;;3.83;;
50429;SDS011;36359;41.556;-8.418;2023-03-30T00:18:05;22.23;;;4.35;;
50429;SDS011;36359;41.556;-8.418;2023-03-30T00:20:31;18.05;;;3.63;;
50429;SDS011;36359;41.556;-8.418;2023-03-30T00:22:57;14.95;;;2.67;;
50429;SDS011;36359;41.556;-8.418;2023-03-30T00:25:23;12.27;;;2.53;;
50429;SDS011;36359;41.556;-8.418;2023-03-30T00:27:49;15.45;;;3.78;;
50429;SDS011;36359;41.556;-8.418;2023-03-30T00:30:15;21.95;;;4.65;;
50429;SDS011;36359;41.556;-8.418;2023-03-30T00:32:42;22.60;;;4.72;;
50429;SDS011;36359;41.556;-8.418;2023-03-30T00:35:10;14.55;;;2.65;;
50429;SDS011;36359;41.556;-8.418;2023-03-30T00:37:36;23.95;;;4.25;;
50429;SDS011;36359;41.556;-8.418;2023-03-30T00:40:04;18.75;;;3.15;;
50429;SDS011;36359;41.556;-8.418;2023-03-30T00:42:36;13.32;;;2.95;;
50429;SDS011;36359;41.556;-8.418;2023-03-30T00:47:30;23.65;;;4.47;;
50429;SDS011;36359;41.556;-8.418;2023-03-30T00:49:57;11.80;;;3.28;;
50429;SDS011;36359;41.556;-8.418;2023-03-30T00:52:24;19.17;;;3.92;;
50429;SDS011;36359;41.556;-8.418;2023-03-30T00:54:52;14.85;;;3.03;;
50429;SDS011;36359;41.556;-8.418;2023-03-30T00:57:21;16.60;;;3.47;;
50429;SDS011;36359;41.556;-8.418;2023-03-30T00:59:49;16.70;;;3.95;;
50429;SDS011;36359;41.556;-8.418;2023-03-30T01:02:17;11.65;;;3.00;;
50429;SDS011;36359;41.556;-8.418;2023-03-30T01:04:46;11.15;;;3.10;;
50429;SDS011;36359;41.556;-8.418;2023-03-30T01:09:57;18.63;;;4.47;;
50429;SDS011;36359;41.556;-8.418;2023-03-30T01:12:24;14.07;;;3.17;;
50429;SDS011;36359;41.556;-8.418;2023-03-30T01:14:50;17.02;;;3.80;;
50429;SDS011;36359;41.556;-8.418;2023-03-30T01:22:46;12.85;;;3.30;;
50429;SDS011;36359;41.556;-8.418;2023-03-30T01:25:20;16.77;;;3.45;;
50429;SDS011;36359;41.556;-8.418;2023-03-30T01:41:13;28.70;;;4.20;;
50429;SDS011;36359;41.556;-8.418;2023-03-30T01:46:23;20.13;;;3.88;;
50429;SDS011;36359;41.556;-8.418;2023-03-30T01:49:00;9.25;;;2.38;;
50429;SDS011;36359;41.556;-8.418;2023-03-30T01:51:37;16.73;;;3.95;;
50429;SDS011;36359;41.556;-8.418;2023-03-30T01:54:09;25.35;;;4.50;;
50429;SDS011;36359;41.556;-8.418;2023-03-30T01:56:57;18.75;;;3.42;;
50429;SDS011;36359;41.556;-8.418;2023-03-30T01:59:43;18.95;;;3.42;;
50429;SDS011;36359;41.556;-8.418;2023-03-30T02:02:21;16.75;;;3.42;;
50429;SDS011;36359;41.556;-8.418;2023-03-30T02:04:51;23.08;;;5.50;;
50429;SDS011;36359;41.556;-8.418;2023-03-30T02:07:23;25.85;;;4.82;;
50429;SDS011;36359;41.556;-8.418;2023-03-30T02:09:52;27.35;;;4.90;;
50429;SDS011;36359;41.556;-8.418;2023-03-30T02:12:22;21.75;;;3.88;;
50429;SDS011;36359;41.556;-8.418;2023-03-30T02:14:50;17.27;;;3.95;;
50429;SDS011;36359;41.556;-8.418;2023-03-30T02:17:19;20.80;;;3.85;;
50429;SDS011;36359;41.556;-8.418;2023-03-30T02:19:47;19.27;;;4.57;;
50429;SDS011;36359;41.556;-8.418;2023-03-30T02:22:15;22.83;;;4.60;;
50429;SDS011;36359;41.556;-8.418;2023-03-30T02:24:42;11.23;;;2.88;;
50429;SDS011;36359;41.556;-8.418;2023-03-30T02:27:10;20.58;;;4.30;;
50429;SDS011;36359;41.556;-8.418;2023-03-30T02:29:38;26.20;;;4.82;;
50429;SDS011;36359;41.556;-8.418;2023-03-30T02:32:07;33.10;;;5.13;;
50429;SDS011;36359;41.556;-8.418;2023-03-30T02:43:11;22.67;;;5.20;;
50429;SDS011;36359;41.556;-8.418;2023-03-30T02:49:21;16.50;;;3.40;;
50429;SDS011;36359;41.556;-8.418;2023-03-30T02:55:09;19.55;;;3.95;;
50429;SDS011;36359;41.556;-8.418;2023-03-30T03:00:59;23.10;;;5.03;;
50429;SDS011;36359;41.556;-8.418;2023-03-30T03:03:40;14.27;;;3.60;;
50429;SDS011;36359;41.556;-8.418;2023-03-30T03:06:10;28.30;;;9.65;;
50429;SDS011;36359;41.556;-8.418;2023-03-30T03:08:44;27.98;;;8.75;;
50429;SDS011;36359;41.556;-8.418;2023-03-30T03:11:20;26.88;;;6.97;;
50429;SDS011;36359;41.556;-8.418;2023-03-30T03:13:46;33.50;;;7.32;;
50429;SDS011;36359;41.556;-8.418;2023-03-30T03:16:12;32.97;;;6.07;;
50429;SDS011;36359;41.556;-8.418;2023-03-30T03:18:49;23.67;;;5.35;;
50429;SDS011;36359;41.556;-8.418;2023-03-30T03:21:14;20.75;;;4.30;;
50429;SDS011;36359;41.556;-8.418;2023-03-30T03:23:41;21.42;;;4.47;;
50429;SDS011;36359;41.556;-8.418;2023-03-30T03:26:09;27.70;;;6.78;;
50429;SDS011;36359;41.556;-8.418;2023-03-30T03:28:36;19.52;;;4.03;;
50429;SDS011;36359;41.556;-8.418;2023-03-30T03:31:05;24.15;;;5.75;;
50429;SDS011;36359;41.556;-8.418;2023-03-30T03:33:32;18.30;;;4.10;;
50429;SDS011;36359;41.556;-8.418;2023-03-30T03:36:11;23.70;;;4.55;;
50429;SDS011;36359;41.556;-8.418;2023-03-30T03:38:43;26.55;;;6.28;;
50429;SDS011;36359;41.556;-8.418;2023-03-30T03:41:09;28.60;;;5.45;;
50429;SDS011;36359;41.556;-8.418;2023-03-30T03:43:37;28.85;;;4.43;;
50429;SDS011;36359;41.556;-8.418;2023-03-30T03:46:02;15.88;;;4.05;;
50429;SDS011;36359;41.556;-8.418;2023-03-30T03:48:28;36.72;;;10.85;;
50429;SDS011;36359;41.556;-8.418;2023-03-30T03:50:55;26.33;;;6.18;;
50429;SDS011;36359;41.556;-8.418;2023-03-30T03:53:23;22.08;;;5.95;;
50429;SDS011;36359;41.556;-8.418;2023-03-30T03:55:55;24.73;;;8.52;;
50429;SDS011;36359;41.556;-8.418;2023-03-30T03:58:21;26.52;;;7.18;;
50429;SDS011;36359;41.556;-8.418;2023-03-30T04:00:49;30.85;;;7.75;;
50429;SDS011;36359;41.556;-8.418;2023-03-30T04:03:15;22.30;;;4.68;;
50429;SDS011;36359;41.556;-8.418;2023-03-30T04:05:41;36.17;;;6.05;;
50429;SDS011;36359;41.556;-8.418;2023-03-30T04:08:07;35.13;;;6.20;;
50429;SDS011;36359;41.556;-8.418;2023-03-30T04:10:39;20.92;;;4.22;;
50429;SDS011;36359;41.556;-8.418;2023-03-30T04:13:23;26.70;;;5.78;;
50429;SDS011;36359;41.556;-8.418;2023-03-30T04:16:08;33.88;;;5.28;;
50429;SDS011;36359;41.556;-8.418;2023-03-30T04:19:06;24.90;;;5.47;;
50429;SDS011;36359;41.556;-8.418;2023-03-30T04:21:46;28.58;;;5.07;;
50429;SDS011;36359;41.556;-8.418;2023-03-30T04:24:45;26.13;;;4.60;;
50429;SDS011;36359;41.556;-8.418;2023-03-30T04:27:40;30.10;;;7.50;;
50429;SDS011;36359;41.556;-8.418;2023-03-30T04:30:19;33.88;;;7.15;;
50429;SDS011;36359;41.556;-8.418;2023-03-30T04:33:05;29.10;;;7.13;;
50429;SDS011;36359;41.556;-8.418;2023-03-30T04:35:52;35.13;;;11.50;;
50429;SDS011;36359;41.556;-8.418;2023-03-30T04:38:38;33.72;;;11.75;;
50429;SDS011;36359;41.556;-8.418;2023-03-30T04:41:07;27.33;;;9.48;;
50429;SDS011;36359;41.556;-8.418;2023-03-30T04:44:03;35.63;;;15.50;;
50429;SDS011;36359;41.556;-8.418;2023-03-30T04:46:43;31.40;;;12.27;;
50429;SDS011;36359;41.556;-8.418;2023-03-30T04:49:22;28.10;;;10.05;;
50429;SDS011;36359;41.556;-8.418;2023-03-30T04:52:07;35.25;;;8.82;;
50429;SDS011;36359;41.556;-8.418;2023-03-30T04:54:51;28.00;;;6.55;;
50429;SDS011;36359;41.556;-8.418;2023-03-30T04:57:37;29.40;;;6.70;;
50429;SDS011;36359;41.556;-8.418;2023-03-30T05:00:28;29.80;;;6.70;;
50429;SDS011;36359;41.556;-8.418;2023-03-30T05:03:15;30.35;;;7.53;;
50429;SDS011;36359;41.556;-8.418;2023-03-30T05:05:52;31.17;;;7.32;;
50429;SDS011;36359;41.556;-8.418;2023-03-30T05:08:34;21.75;;;5.47;;
50429;SDS011;36359;41.556;-8.418;2023-03-30T05:11:18;31.65;;;5.82;;
50429;SDS011;36359;41.556;-8.418;2023-03-30T05:13:55;26.40;;;6.15;;
50429;SDS011;36359;41.556;-8.418;2023-03-30T05:16:40;19.23;;;4.53;;
50429;SDS011;36359;41.556;-8.418;2023-03-30T05:19:42;14.70;;;3.72;;
50429;SDS011;36359;41.556;-8.418;2023-03-30T05:22:22;23.70;;;4.57;;
50429;SDS011;36359;41.556;-8.418;2023-03-30T05:25:22;22.63;;;4.95;;
50429;SDS011;36359;41.556;-8.418;2023-03-30T05:27:59;24.90;;;5.15;;
50429;SDS011;36359;41.556;-8.418;2023-03-30T05:30:45;13.13;;;3.33;;
50429;SDS011;36359;41.556;-8.418;2023-03-30T05:33:43;19.27;;;4.57;;
50429;SDS011;36359;41.556;-8.418;2023-03-30T05:36:30;22.05;;;4.38;;
50429;SDS011;36359;41.556;-8.418;2023-03-30T05:39:26;21.75;;;3.97;;
50429;SDS011;36359;41.556;-8.418;2023-03-30T05:42:18;30.17;;;5.20;;
50429;SDS011;36359;41.556;-8.418;2023-03-30T05:45:09;19.15;;;4.35;;
50429;SDS011;36359;41.556;-8.418;2023-03-30T05:47:54;25.23;;;4.80;;
50429;SDS011;36359;41.556;-8.418;2023-03-30T05:50:40;24.27;;;4.88;;
50429;SDS011;36359;41.556;-8.418;2023-03-30T05:53:16;24.83;;;5.47;;
50429;SDS011;36359;41.556;-8.418;2023-03-30T05:55:51;24.92;;;5.20;;
50429;SDS011;36359;41.556;-8.418;2023-03-30T05:58:20;29.58;;;5.50;;
50429;SDS011;36359;41.556;-8.418;2023-03-30T06:01:05;32.33;;;6.47;;
50429;SDS011;36359;41.556;-8.418;2023-03-30T06:03:36;26.75;;;5.25;;
50429;SDS011;36359;41.556;-8.418;2023-03-30T06:06:03;24.70;;;4.75;;
50429;SDS011;36359;41.556;-8.418;2023-03-30T06:08:30;20.27;;;4.60;;
50429;SDS011;36359;41.556;-8.418;2023-03-30T06:10:58;22.20;;;4.20;;
50429;SDS011;36359;41.556;-8.418;2023-03-30T06:13:31;25.00;;;4.97;;
50429;SDS011;36359;41.556;-8.418;2023-03-30T06:15:58;34.65;;;5.60;;
50429;SDS011;36359;41.556;-8.418;2023-03-30T06:18:26;27.15;;;4.15;;
50429;SDS011;36359;41.556;-8.418;2023-03-30T06:21:04;27.70;;;5.70;;
50429;SDS011;36359;41.556;-8.418;2023-03-30T06:23:44;29.73;;;5.13;;
50429;SDS011;36359;41.556;-8.418;2023-03-30T06:26:16;34.45;;;6.28;;
50429;SDS011;36359;41.556;-8.418;2023-03-30T06:28:42;22.63;;;3.78;;
50429;SDS011;36359;41.556;-8.418;2023-03-30T06:31:08;14.68;;;3.35;;
50429;SDS011;36359;41.556;-8.418;2023-03-30T06:33:35;18.20;;;4.75;;
50429;SDS011;36359;41.556;-8.418;2023-03-30T06:38:36;21.83;;;4.53;;
50429;SDS011;36359;41.556;-8.418;2023-03-30T06:41:03;21.88;;;3.85;;
50429;SDS011;36359;41.556;-8.418;2023-03-30T06:43:35;19.15;;;4.18;;
50429;SDS011;36359;41.556;-8.418;2023-03-30T06:46:08;28.38;;;5.13;;
50429;SDS011;36359;41.556;-8.418;2023-03-30T06:48:37;14.73;;;3.80;;
50429;SDS011;36359;41.556;-8.418;2023-03-30T06:51:21;28.88;;;8.05;;
50429;SDS011;36359;41.556;-8.418;2023-03-30T06:53:47;19.95;;;6.22;;
50429;SDS011;36359;41.556;-8.418;2023-03-30T06:56:13;26.15;;;7.18;;
50429;SDS011;36359;41.556;-8.418;2023-03-30T06:58:56;21.77;;;5.43;;
50429;SDS011;36359;41.556;-8.418;2023-03-30T07:01:21;27.92;;;5.97;;
50429;SDS011;36359;41.556;-8.418;2023-03-30T07:04:06;31.55;;;5.85;;
50429;SDS011;36359;41.556;-8.418;2023-03-30T07:06:53;22.58;;;4.53;;
50429;SDS011;36359;41.556;-8.418;2023-03-30T07:09:23;23.03;;;5.53;;
50429;SDS011;36359;41.556;-8.418;2023-03-30T07:11:50;25.80;;;5.00;;
50429;SDS011;36359;41.556;-8.418;2023-03-30T07:14:17;18.88;;;5.10;;
50429;SDS011;36359;41.556;-8.418;2023-03-30T07:16:43;16.25;;;4.93;;
50429;SDS011;36359;41.556;-8.418;2023-03-30T07:19:10;20.23;;;4.05;;
50429;SDS011;36359;41.556;-8.418;2023-03-30T07:21:36;25.58;;;4.88;;
50429;SDS011;36359;41.556;-8.418;2023-03-30T07:24:04;25.88;;;5.20;;
50429;SDS011;36359;41.556;-8.418;2023-03-30T07:26:34;25.92;;;6.55;;
50429;SDS011;36359;41.556;-8.418;2023-03-30T07:29:06;19.55;;;4.22;;
50429;SDS011;36359;41.556;-8.418;2023-03-30T07:31:34;24.05;;;4.43;;
50429;SDS011;36359;41.556;-8.418;2023-03-30T07:34:02;13.35;;;3.45;;
50429;SDS011;36359;41.556;-8.418;2023-03-30T07:38:58;28.10;;;5.25;;
50429;SDS011;36359;41.556;-8.418;2023-03-30T07:41:26;17.83;;;4.13;;
50429;SDS011;36359;41.556;-8.418;2023-03-30T07:43:55;23.35;;;5.07;;
50429;SDS011;36359;41.556;-8.418;2023-03-30T07:46:21;21.17;;;4.68;;
50429;SDS011;36359;41.556;-8.418;2023-03-30T07:48:51;23.40;;;4.87;;
50429;SDS011;36359;41.556;-8.418;2023-03-30T07:51:18;15.90;;;4.15;;
50429;SDS011;36359;41.556;-8.418;2023-03-30T07:54:00;23.23;;;4.18;;
50429;SDS011;36359;41.556;-8.418;2023-03-30T07:56:46;23.95;;;4.30;;
50429;SDS011;36359;41.556;-8.418;2023-03-30T07:59:18;20.30;;;4.25;;
50429;SDS011;36359;41.556;-8.418;2023-03-30T08:01:44;18.35;;;4.18;;
50429;SDS011;36359;41.556;-8.418;2023-03-30T08:04:33;23.92;;;5.93;;
50429;SDS011;36359;41.556;-8.418;2023-03-30T08:06:59;20.88;;;4.70;;
50429;SDS011;36359;41.556;-8.418;2023-03-30T08:09:25;27.20;;;5.60;;
50429;SDS011;36359;41.556;-8.418;2023-03-30T08:11:51;20.33;;;5.38;;
50429;SDS011;36359;41.556;-8.418;2023-03-30T08:14:18;29.33;;;6.03;;
50429;SDS011;36359;41.556;-8.418;2023-03-30T08:16:44;21.13;;;5.45;;
50429;SDS011;36359;41.556;-8.418;2023-03-30T08:19:10;28.00;;;9.30;;
50429;SDS011;36359;41.556;-8.418;2023-03-30T08:21:36;27.55;;;5.93;;
50429;SDS011;36359;41.556;-8.418;2023-03-30T08:24:01;23.05;;;6.00;;
50429;SDS011;36359;41.556;-8.418;2023-03-30T08:26:27;28.25;;;7.13;;
50429;SDS011;36359;41.556;-8.418;2023-03-30T08:28:55;22.15;;;6.03;;
50429;SDS011;36359;41.556;-8.418;2023-03-30T08:31:22;25.63;;;6.82;;
50429;SDS011;36359;41.556;-8.418;2023-03-30T08:33:48;19.73;;;5.85;;
50429;SDS011;36359;41.556;-8.418;2023-03-30T08:36:14;28.15;;;6.20;;
50429;SDS011;36359;41.556;-8.418;2023-03-30T08:38:40;22.58;;;5.90;;
50429;SDS011;36359;41.556;-8.418;2023-03-30T08:43:59;21.48;;;5.45;;
50429;SDS011;36359;41.556;-8.418;2023-03-30T08:46:27;20.67;;;5.82;;
50429;SDS011;36359;41.556;-8.418;2023-03-30T08:48:54;25.17;;;5.78;;
50429;SDS011;36359;41.556;-8.418;2023-03-30T08:51:31;19.45;;;5.68;;
50429;SDS011;36359;41.556;-8.418;2023-03-30T08:54:00;24.48;;;5.32;;
50429;SDS011;36359;41.556;-8.418;2023-03-30T08:59:17;26.17;;;6.28;;
50429;SDS011;36359;41.556;-8.418;2023-03-30T09:01:53;21.15;;;6.00;;
50429;SDS011;36359;41.556;-8.418;2023-03-30T09:07:16;21.63;;;5.65;;
50429;SDS011;36359;41.556;-8.418;2023-03-30T09:09:46;24.70;;;5.35;;
50429;SDS011;36359;41.556;-8.418;2023-03-30T09:12:22;21.88;;;5.60;;
50429;SDS011;36359;41.556;-8.418;2023-03-30T09:21:17;27.35;;;5.60;;
50429;SDS011;36359;41.556;-8.418;2023-03-30T09:23:52;24.63;;;5.00;;
50429;SDS011;36359;41.556;-8.418;2023-03-30T09:26:28;20.02;;;5.50;;
50429;SDS011;36359;41.556;-8.418;2023-03-30T09:29:17;21.05;;;5.05;;
50429;SDS011;36359;41.556;-8.418;2023-03-30T09:31:53;15.35;;;4.70;;
50429;SDS011;36359;41.556;-8.418;2023-03-30T09:34:33;22.85;;;6.18;;
50429;SDS011;36359;41.556;-8.418;2023-03-30T09:37:13;30.00;;;8.68;;
50429;SDS011;36359;41.556;-8.418;2023-03-30T09:39:43;31.33;;;10.07;;
50429;SDS011;36359;41.556;-8.418;2023-03-30T09:42:23;21.58;;;6.22;;
50429;SDS011;36359;41.556;-8.418;2023-03-30T09:45:34;21.27;;;6.43;;
50429;SDS011;36359;41.556;-8.418;2023-03-30T09:48:45;21.20;;;5.93;;
50429;SDS011;36359;41.556;-8.418;2023-03-30T09:54:25;21.80;;;6.32;;
50429;SDS011;36359;41.556;-8.418;2023-03-30T09:57:50;15.45;;;4.97;;
50429;SDS011;36359;41.556;-8.418;2023-03-30T10:07:36;15.05;;;4.63;;
50429;SDS011;36359;41.556;-8.418;2023-03-30T10:13:32;17.55;;;5.40;;
50429;SDS011;36359;41.556;-8.418;2023-03-30T10:16:04;20.02;;;5.20;;
50429;SDS011;36359;41.556;-8.418;2023-03-30T10:18:47;19.52;;;5.43;;
50429;SDS011;36359;41.556;-8.418;2023-03-30T10:21:21;19.88;;;5.55;;
50429;SDS011;36359;41.556;-8.418;2023-03-30T10:23:58;23.08;;;4.80;;
50429;SDS011;36359;41.556;-8.418;2023-03-30T10:26:29;17.55;;;5.50;;
50429;SDS011;36359;41.556;-8.418;2023-03-30T10:31:29;22.90;;;5.30;;
50429;SDS011;36359;41.556;-8.418;2023-03-30T10:33:59;15.77;;;3.97;;
50429;SDS011;36359;41.556;-8.418;2023-03-30T10:36:38;18.58;;;3.88;;
50429;SDS011;36359;41.556;-8.418;2023-03-30T10:39:21;17.30;;;4.23;;
50429;SDS011;36359;41.556;-8.418;2023-03-30T10:41:47;20.48;;;3.20;;
50429;SDS011;36359;41.556;-8.418;2023-03-30T10:44:24;19.65;;;4.40;;
50429;SDS011;36359;41.556;-8.418;2023-03-30T10:47:12;16.75;;;4.95;;
50429;SDS011;36359;41.556;-8.418;2023-03-30T10:58:37;57.45;;;6.63;;
50429;SDS011;36359;41.556;-8.418;2023-03-30T11:03:37;28.92;;;4.35;;
50429;SDS011;36359;41.556;-8.418;2023-03-30T11:06:12;31.80;;;4.85;;
50429;SDS011;36359;41.556;-8.418;2023-03-30T11:08:45;26.73;;;4.35;;
50429;SDS011;36359;41.556;-8.418;2023-03-30T11:13:52;22.73;;;3.97;;
50429;SDS011;36359;41.556;-8.418;2023-03-30T11:16:24;21.92;;;4.70;;
50429;SDS011;36359;41.556;-8.418;2023-03-30T11:19:16;28.53;;;3.90;;
50429;SDS011;36359;41.556;-8.418;2023-03-30T11:21:54;24.98;;;4.47;;
50429;SDS011;36359;41.556;-8.418;2023-03-30T11:24:27;19.55;;;4.03;;
50429;SDS011;36359;41.556;-8.418;2023-03-30T11:29:45;24.25;;;5.50;;
50429;SDS011;36359;41.556;-8.418;2023-03-30T11:37:45;21.73;;;3.40;;
50429;SDS011;36359;41.556;-8.418;2023-03-30T11:40:27;23.30;;;4.10;;
50429;SDS011;36359;41.556;-8.418;2023-03-30T11:43:06;23.83;;;4.25;;
50429;SDS011;36359;41.556;-8.418;2023-03-30T11:46:09;26.63;;;5.43;;
50429;SDS011;36359;41.556;-8.418;2023-03-30T11:51:42;18.08;;;3.92;;
50429;SDS011;36359;41.556;-8.418;2023-03-30T11:55:15;21.00;;;4.32;;
50429;SDS011;36359;41.556;-8.418;2023-03-30T12:05:34;17.55;;;3.17;;
50429;SDS011;36359;41.556;-8.418;2023-03-30T12:14:00;21.60;;;3.83;;
50429;SDS011;36359;41.556;-8.418;2023-03-30T12:16:32;18.38;;;4.03;;
50429;SDS011;36359;41.556;-8.418;2023-03-30T12:19:13;17.52;;;3.40;;
50429;SDS011;36359;41.556;-8.418;2023-03-30T12:22:07;16.90;;;;;
50429;SDS011;36359;41.556;-8.418;2023-03-30T12:24:37;18.83;;;3.85;;
50429;SDS011;36359;41.556;-8.418;2023-03-30T12:27:12;23.77;;;5.10;;
50429;SDS011;36359;41.556;-8.418;2023-03-30T12:29:45;19.92;;;3.53;;
50429;SDS011;36359;41.556;-8.418;2023-03-30T12:32:23;18.58;;;3.97;;
50429;SDS011;36359;41.556;-8.418;2023-03-30T12:34:50;17.17;;;2.90;;
50429;SDS011;36359;41.556;-8.418;2023-03-30T12:42:47;16.13;;;3.47;;
50429;SDS011;36359;41.556;-8.418;2023-03-30T12:45:48;21.20;;;4.32;;
50429;SDS011;36359;41.556;-8.418;2023-03-30T12:51:15;20.98;;;3.72;;
50429;SDS011;36359;41.556;-8.418;2023-03-30T12:57:14;22.67;;;3.83;;
50429;SDS011;36359;41.556;-8.418;2023-03-30T12:59:59;17.50;;;3.75;;
50429;SDS011;36359;41.556;-8.418;2023-03-30T13:05:22;21.98;;;3.60;;
50429;SDS011;36359;41.556;-8.418;2023-03-30T13:07:51;20.30;;;3.72;;
50429;SDS011;36359;41.556;-8.418;2023-03-30T13:12:55;17.83;;;3.60;;
50429;SDS011;36359;41.556;-8.418;2023-03-30T13:15:44;14.70;;;3.22;;
50429;SDS011;36359;41.556;-8.418;2023-03-30T13:18:23;21.77;;;3.65;;
50429;SDS011;36359;41.556;-8.418;2023-03-30T13:21:04;16.77;;;3.63;;
50429;SDS011;36359;41.556;-8.418;2023-03-30T13:23:42;16.05;;;3.88;;
50429;SDS011;36359;41.556;-8.418;2023-03-30T13:26:22;16.15;;;3.22;;
50429;SDS011;36359;41.556;-8.418;2023-03-30T13:40:17;17.42;;;3.90;;
50429;SDS011;36359;41.556;-8.418;2023-03-30T13:43:02;19.95;;;4.57;;
50429;SDS011;36359;41.556;-8.418;2023-03-30T13:51:26;17.00;;;4.30;;
50429;SDS011;36359;41.556;-8.418;2023-03-30T13:53:57;16.55;;;4.25;;
50429;SDS011;36359;41.556;-8.418;2023-03-30T13:56:40;18.92;;;3.72;;
50429;SDS011;36359;41.556;-8.418;2023-03-30T13:59:11;17.95;;;4.30;;
50429;SDS011;36359;41.556;-8.418;2023-03-30T14:01:40;14.68;;;3.63;;
50429;SDS011;36359;41.556;-8.418;2023-03-30T14:04:15;16.80;;;3.42;;
50429;SDS011;36359;41.556;-8.418;2023-03-30T14:06:42;18.58;;;4.00;;
50429;SDS011;36359;41.556;-8.418;2023-03-30T14:09:20;18.63;;;4.35;;
50429;SDS011;36359;41.556;-8.418;2023-03-30T14:16:57;15.20;;;3.85;;
50429;SDS011;36359;41.556;-8.418;2023-03-30T14:19:32;19.30;;;4.15;;
50429;SDS011;36359;41.556;-8.418;2023-03-30T14:22:20;17.13;;;3.97;;
50429;SDS011;36359;41.556;-8.418;2023-03-30T14:24:59;22.20;;;4.30;;
50429;SDS011;36359;41.556;-8.418;2023-03-30T14:27:31;16.00;;;4.03;;
50429;SDS011;36359;41.556;-8.418;2023-03-30T14:30:01;20.27;;;4.28;;
50429;SDS011;36359;41.556;-8.418;2023-03-30T14:32:28;14.48;;;3.85;;
50429;SDS011;36359;41.556;-8.418;2023-03-30T14:34:54;13.60;;;4.38;;
50429;SDS011;36359;41.556;-8.418;2023-03-30T14:37:21;19.88;;;3.83;;
50429;SDS011;36359;41.556;-8.418;2023-03-30T14:39:53;20.65;;;4.57;;
50429;SDS011;36359;41.556;-8.418;2023-03-30T14:44:47;17.67;;;4.72;;
50429;SDS011;36359;41.556;-8.418;2023-03-30T14:47:17;25.00;;;4.90;;
50429;SDS011;36359;41.556;-8.418;2023-03-30T14:49:46;23.45;;;5.47;;
50429;SDS011;36359;41.556;-8.418;2023-03-30T14:52:18;16.55;;;3.65;;
50429;SDS011;36359;41.556;-8.418;2023-03-30T14:54:46;19.85;;;3.70;;
50429;SDS011;36359;41.556;-8.418;2023-03-30T14:57:18;17.33;;;3.92;;
50429;SDS011;36359;41.556;-8.418;2023-03-30T14:59:50;18.08;;;4.28;;
50429;SDS011;36359;41.556;-8.418;2023-03-30T15:02:20;19.38;;;3.90;;
50429;SDS011;36359;41.556;-8.418;2023-03-30T15:04:50;21.45;;;3.80;;
50429;SDS011;36359;41.556;-8.418;2023-03-30T15:07:17;22.08;;;4.15;;
50429;SDS011;36359;41.556;-8.418;2023-03-30T15:09:44;17.40;;;3.58;;
50429;SDS011;36359;41.556;-8.418;2023-03-30T15:12:44;18.95;;;3.70;;
50429;SDS011;36359;41.556;-8.418;2023-03-30T15:15:06;19.98;;;4.80;;
50429;SDS011;36359;41.556;-8.418;2023-03-30T15:17:33;16.70;;;4.25;;
50429;SDS011;36359;41.556;-8.418;2023-03-30T15:20:03;20.80;;;5.32;;
50429;SDS011;36359;41.556;-8.418;2023-03-30T15:22:32;20.17;;;4.22;;
50429;SDS011;36359;41.556;-8.418;2023-03-30T15:25:02;20.08;;;4.05;;
50429;SDS011;36359;41.556;-8.418;2023-03-30T15:27:32;27.42;;;4.90;;
50429;SDS011;36359;41.556;-8.418;2023-03-30T15:30:00;18.63;;;4.55;;
50429;SDS011;36359;41.556;-8.418;2023-03-30T15:32:38;22.25;;;4.32;;
50429;SDS011;36359;41.556;-8.418;2023-03-30T15:37:32;21.00;;;4.30;;
50429;SDS011;36359;41.556;-8.418;2023-03-30T15:39:59;27.33;;;4.40;;
50429;SDS011;36359;41.556;-8.418;2023-03-30T15:42:29;21.70;;;4.32;;
50429;SDS011;36359;41.556;-8.418;2023-03-30T15:44:59;31.70;;;4.82;;
50429;SDS011;36359;41.556;-8.418;2023-03-30T15:47:32;19.38;;;4.00;;
50429;SDS011;36359;41.556;-8.418;2023-03-30T15:49:58;20.63;;;3.72;;
50429;SDS011;36359;41.556;-8.418;2023-03-30T15:52:25;15.55;;;3.47;;
50429;SDS011;36359;41.556;-8.418;2023-03-30T15:55:05;18.30;;;3.67;;
50429;SDS011;36359;41.556;-8.418;2023-03-30T15:57:40;20.65;;;4.15;;
50429;SDS011;36359;41.556;-8.418;2023-03-30T16:00:20;18.40;;;4.32;;
50429;SDS011;36359;41.556;-8.418;2023-03-30T16:02:49;15.07;;;3.60;;
50429;SDS011;36359;41.556;-8.418;2023-03-30T16:05:23;16.73;;;3.40;;
50429;SDS011;36359;41.556;-8.418;2023-03-30T16:07:50;22.48;;;5.15;;
50429;SDS011;36359;41.556;-8.418;2023-03-30T16:10:18;14.32;;;3.30;;
50429;SDS011;36359;41.556;-8.418;2023-03-30T16:12:49;21.35;;;4.85;;
50429;SDS011;36359;41.556;-8.418;2023-03-30T16:15:18;18.70;;;3.92;;
50429;SDS011;36359;41.556;-8.418;2023-03-30T16:17:48;15.57;;;4.32;;
50429;SDS011;36359;41.556;-8.418;2023-03-30T16:20:19;17.65;;;3.45;;
50429;SDS011;36359;41.556;-8.418;2023-03-30T16:22:46;15.63;;;3.42;;
50429;SDS011;36359;41.556;-8.418;2023-03-30T16:25:13;14.05;;;3.33;;
50429;SDS011;36359;41.556;-8.418;2023-03-30T16:27:40;25.02;;;5.30;;
50429;SDS011;36359;41.556;-8.418;2023-03-30T16:30:20;21.00;;;4.95;;
50429;SDS011;36359;41.556;-8.418;2023-03-30T16:32:51;21.38;;;4.50;;
50429;SDS011;36359;41.556;-8.418;2023-03-30T16:35:16;22.33;;;4.43;;
50429;SDS011;36359;41.556;-8.418;2023-03-30T16:37:42;15.45;;;4.22;;
50429;SDS011;36359;41.556;-8.418;2023-03-30T16:42:52;17.45;;;3.65;;
50429;SDS011;36359;41.556;-8.418;2023-03-30T16:45:18;17.33;;;3.80;;
50429;SDS011;36359;41.556;-8.418;2023-03-30T16:47:47;24.30;;;3.95;;
50429;SDS011;36359;41.556;-8.418;2023-03-30T16:50:15;20.02;;;4.82;;
50429;SDS011;36359;41.556;-8.418;2023-03-30T16:52:47;29.65;;;5.85;;
50429;SDS011;36359;41.556;-8.418;2023-03-30T16:55:13;16.77;;;3.75;;
50429;SDS011;36359;41.556;-8.418;2023-03-30T16:57:43;20.52;;;3.67;;
50429;SDS011;36359;41.556;-8.418;2023-03-30T17:00:13;20.50;;;4.72;;
50429;SDS011;36359;41.556;-8.418;2023-03-30T17:02:42;19.27;;;3.78;;
50429;SDS011;36359;41.556;-8.418;2023-03-30T17:05:08;21.42;;;4.45;;
50429;SDS011;36359;41.556;-8.418;2023-03-30T17:07:34;19.25;;;4.20;;
50429;SDS011;36359;41.556;-8.418;2023-03-30T17:10:23;21.10;;;4.72;;
50429;SDS011;36359;41.556;-8.418;2023-03-30T17:12:51;18.73;;;3.30;;
50429;SDS011;36359;41.556;-8.418;2023-03-30T17:15:18;18.48;;;3.95;;
50429;SDS011;36359;41.556;-8.418;2023-03-30T17:17:45;22.95;;;6.40;;
50429;SDS011;36359;41.556;-8.418;2023-03-30T17:20:19;22.92;;;5.70;;
50429;SDS011;36359;41.556;-8.418;2023-03-30T17:23:00;18.20;;;4.10;;
50429;SDS011;36359;41.556;-8.418;2023-03-30T17:25:27;24.67;;;5.15;;
50429;SDS011;36359;41.556;-8.418;2023-03-30T17:27:53;22.45;;;4.07;;
50429;SDS011;36359;41.556;-8.418;2023-03-30T17:30:24;20.05;;;5.55;;
50429;SDS011;36359;41.556;-8.418;2023-03-30T17:32:52;28.38;;;11.35;;
50429;SDS011;36359;41.556;-8.418;2023-03-30T17:35:22;23.60;;;6.68;;
50429;SDS011;36359;41.556;-8.418;2023-03-30T17:37:49;27.30;;;5.15;;
50429;SDS011;36359;41.556;-8.418;2023-03-30T17:42:43;27.10;;;9.18;;
50429;SDS011;36359;41.556;-8.418;2023-03-30T17:47:56;26.00;;;5.30;;
50429;SDS011;36359;41.556;-8.418;2023-03-30T17:50:41;13.43;;;3.60;;